createdAt,value
2022-12-31T00:02:01.797Z,24.17
2022-12-31T00:04:28.648Z,26.25
2022-12-31T00:06:55.407Z,26.80
2022-12-31T00:09:22.258Z,25.17
2022-12-31T00:11:49.046Z,26.00
2022-12-31T00:14:15.849Z,28.08
2022-12-31T00:16:43.297Z,28.40
2022-12-31T00:19:11.792Z,26.27
2022-12-31T00:21:38.826Z,28.15
2022-12-31T00:24:06.854Z,29.10
2022-12-31T00:26:34.998Z,31.38
2022-12-31T00:29:02.617Z,41.72
2022-12-31T00:31:37.909Z,39.45
2022-12-31T00:34:05.099Z,31.20
2022-12-31T00:36:34.795Z,40.35
2022-12-31T00:39:04.112Z,39.30
2022-12-31T00:41:31.330Z,31.98
2022-12-31T00:43:58.609Z,32.30
2022-12-31T00:46:25.795Z,29.25
2022-12-31T00:48:52.635Z,27.40
2022-12-31T00:51:22.380Z,29.80
2022-12-31T00:53:49.811Z,30.98
2022-12-31T00:56:20.054Z,27.20
2022-12-31T00:58:47.414Z,31.67
2022-12-31T01:01:26.198Z,29.85
2022-12-31T01:03:56.227Z,36.78
2022-12-31T01:06:23.268Z,34.03
2022-12-31T01:08:51.335Z,32.38
2022-12-31T01:11:19.042Z,33.63
2022-12-31T01:14:01.598Z,31.52
2022-12-31T01:16:34.909Z,32.38
2022-12-31T01:19:05.076Z,30.25
2022-12-31T01:21:32.799Z,33.50
2022-12-31T01:24:00.287Z,30.60
2022-12-31T01:26:28.307Z,31.33
2022-12-31T01:28:55.098Z,36.67
2022-12-31T01:31:23.371Z,37.65
2022-12-31T01:33:50.873Z,37.55
2022-12-31T01:36:25.640Z,43.00
2022-12-31T01:38:56.109Z,36.60
2022-12-31T01:41:30.153Z,36.53
2022-12-31T01:43:59.597Z,34.42
2022-12-31T01:46:42.540Z,32.60
2022-12-31T01:49:43.478Z,32.80
2022-12-31T01:52:13.007Z,32.88
2022-12-31T01:54:49.167Z,31.63
2022-12-31T01:57:16.973Z,36.13
2022-12-31T01:59:45.464Z,34.00
2022-12-31T02:02:14.504Z,32.42
2022-12-31T02:04:41.542Z,35.47
2022-12-31T02:07:10.142Z,36.55
2022-12-31T02:09:39.490Z,34.90
2022-12-31T02:12:08.270Z,34.33
2022-12-31T02:14:39.526Z,34.47
2022-12-31T02:17:25.042Z,33.03
2022-12-31T02:20:13.318Z,32.65
2022-12-31T02:23:02.000Z,30.38
2022-12-31T02:25:38.827Z,34.28
2022-12-31T02:28:23.284Z,32.22
2022-12-31T02:30:57.401Z,34.60
2022-12-31T02:33:38.897Z,37.03
2022-12-31T02:36:21.759Z,33.50
2022-12-31T02:38:49.664Z,34.55
2022-12-31T02:41:37.698Z,36.28
2022-12-31T02:44:32.264Z,33.90
2022-12-31T02:47:08.241Z,32.88
2022-12-31T02:52:35.067Z,32.88
2022-12-31T02:55:18.929Z,34.78
2022-12-31T02:58:00.579Z,31.08
2022-12-31T03:00:48.910Z,29.13
2022-12-31T03:03:16.390Z,33.20
2022-12-31T03:08:57.034Z,29.52
2022-12-31T03:11:42.275Z,29.85
2022-12-31T03:14:09.097Z,31.50
2022-12-31T03:16:35.906Z,35.22
2022-12-31T03:19:21.121Z,30.42
2022-12-31T03:22:06.679Z,34.55
2022-12-31T03:24:52.276Z,33.53
2022-12-31T03:27:19.031Z,31.30
2022-12-31T03:29:45.748Z,36.35
2022-12-31T03:32:12.529Z,36.08
2022-12-31T03:34:39.241Z,29.63
2022-12-31T03:37:05.964Z,32.15
2022-12-31T03:39:32.758Z,28.52
2022-12-31T03:41:59.448Z,34.28
2022-12-31T03:44:26.195Z,36.75
2022-12-31T03:46:52.960Z,39.55
2022-12-31T03:49:19.695Z,37.15
2022-12-31T03:51:46.428Z,35.35
2022-12-31T03:54:13.197Z,36.67
2022-12-31T03:56:39.947Z,32.85
2022-12-31T03:59:06.671Z,34.67
2022-12-31T04:01:33.550Z,35.83
2022-12-31T04:04:00.440Z,39.38
2022-12-31T04:06:27.451Z,38.63
2022-12-31T04:08:54.234Z,40.55
2022-12-31T04:11:21.310Z,44.70
2022-12-31T04:13:48.094Z,42.85
2022-12-31T04:16:14.955Z,40.97
2022-12-31T04:18:41.751Z,34.85
2022-12-31T04:21:08.521Z,34.47
2022-12-31T04:23:35.339Z,43.30
2022-12-31T04:26:02.149Z,42.80
2022-12-31T04:28:28.856Z,41.65
2022-12-31T04:30:55.631Z,39.05
2022-12-31T04:33:22.375Z,49.20
2022-12-31T04:35:49.085Z,83.22
2022-12-31T04:38:15.872Z,59.63
2022-12-31T04:41:03.071Z,39.67
2022-12-31T04:43:29.971Z,41.28
2022-12-31T04:45:56.804Z,150.30
2022-12-31T04:48:23.521Z,50.55
2022-12-31T04:50:50.362Z,139.00
2022-12-31T04:53:17.094Z,93.13
2022-12-31T04:55:45.386Z,57.60
2022-12-31T04:58:12.198Z,123.35
2022-12-31T05:00:38.970Z,100.05
2022-12-31T05:03:05.767Z,69.60
2022-12-31T05:05:32.579Z,195.07
2022-12-31T05:07:59.498Z,68.30
2022-12-31T05:10:26.314Z,62.47
2022-12-31T05:12:53.117Z,47.30
2022-12-31T05:15:19.823Z,47.83
2022-12-31T05:17:46.553Z,73.18
2022-12-31T05:20:13.355Z,43.72
2022-12-31T05:22:40.058Z,40.25
2022-12-31T05:25:07.257Z,40.83
2022-12-31T05:27:34.242Z,38.70
2022-12-31T05:30:01.075Z,40.38
2022-12-31T05:32:28.012Z,82.63
2022-12-31T05:34:54.792Z,85.35
2022-12-31T05:37:21.592Z,101.60
2022-12-31T05:39:48.337Z,79.07
2022-12-31T05:42:15.114Z,128.98
2022-12-31T05:44:41.893Z,104.32
2022-12-31T05:47:08.724Z,73.40
2022-12-31T05:49:35.575Z,67.80
2022-12-31T05:52:02.309Z,68.30
2022-12-31T05:54:29.025Z,120.20
2022-12-31T05:56:55.916Z,86.57
2022-12-31T05:59:22.652Z,91.47
2022-12-31T06:01:49.366Z,120.93
2022-12-31T06:04:16.153Z,86.85
2022-12-31T06:06:43.195Z,118.00
2022-12-31T06:09:10.084Z,88.75
2022-12-31T06:11:36.854Z,141.02
2022-12-31T06:14:03.685Z,66.10
2022-12-31T06:16:30.411Z,132.82
2022-12-31T06:18:57.300Z,88.00
2022-12-31T06:21:24.044Z,150.93
2022-12-31T06:23:50.805Z,260.55
2022-12-31T06:26:17.697Z,135.80
2022-12-31T06:28:44.445Z,72.25
2022-12-31T06:31:13.651Z,98.97
2022-12-31T06:33:41.318Z,121.30
2022-12-31T06:36:11.827Z,61.35
2022-12-31T06:38:40.784Z,99.82
2022-12-31T06:41:10.228Z,96.07
2022-12-31T06:43:38.655Z,102.68
2022-12-31T06:46:08.049Z,95.18
2022-12-31T06:48:35.580Z,81.47
2022-12-31T06:51:07.800Z,87.90
2022-12-31T06:53:37.472Z,79.20
2022-12-31T06:56:34.304Z,128.35
2022-12-31T06:59:02.403Z,62.35
2022-12-31T07:01:47.839Z,80.35
2022-12-31T07:04:17.696Z,67.15
2022-12-31T07:06:52.597Z,56.72
2022-12-31T07:09:38.804Z,71.97
2022-12-31T07:12:11.445Z,84.68
2022-12-31T07:14:49.388Z,60.20
2022-12-31T07:17:27.973Z,53.03
2022-12-31T07:20:19.034Z,61.10
2022-12-31T07:22:46.492Z,51.42
2022-12-31T07:25:15.376Z,50.85
2022-12-31T07:28:15.611Z,53.65
2022-12-31T07:30:51.182Z,50.30
2022-12-31T07:33:45.188Z,61.83
2022-12-31T07:36:42.909Z,57.92
2022-12-31T07:39:14.665Z,57.65
2022-12-31T07:41:44.136Z,58.40
2022-12-31T07:44:36.788Z,53.25
2022-12-31T07:47:05.795Z,47.42
2022-12-31T07:49:34.129Z,53.08
2022-12-31T07:52:01.111Z,58.38
2022-12-31T07:54:28.007Z,53.53
2022-12-31T07:56:54.845Z,70.40
2022-12-31T07:59:39.687Z,62.00
2022-12-31T08:02:24.814Z,60.10
2022-12-31T08:04:59.966Z,51.47
2022-12-31T08:07:52.521Z,45.13
2022-12-31T08:10:48.400Z,44.22
2022-12-31T08:13:16.745Z,49.35
2022-12-31T08:15:43.793Z,48.00
2022-12-31T08:18:11.119Z,43.85
2022-12-31T08:20:57.874Z,41.25
2022-12-31T08:23:42.714Z,44.17
2022-12-31T08:26:18.358Z,44.80
2022-12-31T08:29:17.472Z,46.28
2022-12-31T08:32:03.600Z,46.28
2022-12-31T08:35:05.006Z,42.15
2022-12-31T08:37:42.916Z,44.22
2022-12-31T08:40:28.149Z,47.97
2022-12-31T08:43:35.157Z,50.65
2022-12-31T08:46:04.630Z,46.67
2022-12-31T08:48:39.475Z,47.45
2022-12-31T08:51:09.759Z,47.65
2022-12-31T08:53:36.721Z,46.38
2022-12-31T08:56:12.916Z,47.25
2022-12-31T08:58:42.804Z,46.25
2022-12-31T09:01:11.296Z,47.38
2022-12-31T09:04:06.114Z,43.28
2022-12-31T09:06:48.371Z,40.15
2022-12-31T09:09:33.047Z,42.35
2022-12-31T09:12:28.201Z,43.58
2022-12-31T09:14:58.437Z,44.08
2022-12-31T09:17:46.283Z,40.38
2022-12-31T09:20:36.356Z,47.28
2022-12-31T09:23:08.984Z,42.97
2022-12-31T09:25:56.362Z,46.75
2022-12-31T09:28:36.814Z,41.20
2022-12-31T09:31:16.599Z,44.65
2022-12-31T09:34:28.741Z,43.78
2022-12-31T09:37:05.408Z,43.88
2022-12-31T09:39:43.893Z,40.30
2022-12-31T09:42:35.103Z,44.67
2022-12-31T09:45:26.312Z,46.92
2022-12-31T09:47:55.988Z,43.97
2022-12-31T09:50:31.595Z,43.05
2022-12-31T09:53:10.573Z,44.63
2022-12-31T09:55:49.139Z,44.63
2022-12-31T09:58:40.773Z,41.50
2022-12-31T10:01:13.619Z,41.13
2022-12-31T10:04:00.986Z,43.65
2022-12-31T10:06:44.450Z,40.58
2022-12-31T10:09:26.522Z,41.55
2022-12-31T10:12:27.469Z,43.45
2022-12-31T10:15:35.552Z,36.42
2022-12-31T10:18:19.055Z,34.20
2022-12-31T10:21:01.762Z,33.97
2022-12-31T15:28:06.519Z,48.30
2022-12-31T15:33:16.700Z,40.40
2022-12-31T15:35:54.928Z,44.17
2022-12-31T15:38:30.922Z,46.67
2022-12-31T15:43:24.912Z,43.05
2022-12-31T15:45:54.309Z,44.70
2022-12-31T15:48:39.869Z,45.58
2022-12-31T15:51:17.444Z,46.78
2022-12-31T15:53:52.557Z,42.53
2022-12-31T15:56:35.479Z,37.33
2022-12-31T15:59:06.438Z,37.65
2022-12-31T16:01:36.361Z,43.17
2022-12-31T16:04:06.758Z,41.05
2022-12-31T16:06:37.604Z,42.63
2022-12-31T16:09:08.475Z,45.97
2022-12-31T16:11:41.782Z,39.50
2022-12-31T16:14:20.230Z,40.05
2022-12-31T16:16:59.514Z,38.08
2022-12-31T16:19:43.739Z,40.65
2022-12-31T16:22:24.414Z,41.33
2022-12-31T16:27:53.028Z,37.08
2022-12-31T16:30:32.239Z,38.67
2022-12-31T16:33:05.059Z,39.78
2022-12-31T16:35:34.679Z,38.40
2022-12-31T16:38:19.877Z,37.63
2022-12-31T16:41:01.982Z,35.75
2022-12-31T16:43:35.652Z,42.22
2022-12-31T16:46:27.438Z,38.30
2022-12-31T16:49:19.643Z,37.42
2022-12-31T16:51:47.284Z,48.05
2022-12-31T16:54:26.148Z,40.45
2022-12-31T16:56:53.009Z,51.22
2022-12-31T16:59:35.141Z,44.50
2022-12-31T17:02:07.448Z,40.55
2022-12-31T17:04:34.596Z,40.40
2022-12-31T17:07:31.131Z,42.15
2022-12-31T17:10:07.165Z,40.63
2022-12-31T17:15:26.002Z,43.22
2022-12-31T17:17:57.203Z,41.95
2022-12-31T17:20:29.761Z,38.17
2022-12-31T17:23:05.506Z,37.53
2022-12-31T17:25:34.302Z,36.90
2022-12-31T17:28:02.336Z,40.53
2022-12-31T17:30:39.862Z,36.88
2022-12-31T17:33:12.501Z,38.95
2022-12-31T17:35:43.873Z,35.00
2022-12-31T17:38:22.564Z,36.05
2022-12-31T17:40:53.574Z,37.85
2022-12-31T17:43:23.022Z,39.35
2022-12-31T17:45:54.435Z,38.78
2022-12-31T17:48:24.710Z,35.60
2022-12-31T17:50:53.707Z,35.00
2022-12-31T17:53:21.212Z,34.88
2022-12-31T17:55:50.555Z,38.10
2022-12-31T17:58:29.801Z,34.75
2022-12-31T18:00:58.009Z,35.67
2022-12-31T18:03:25.042Z,35.55
2022-12-31T18:05:52.074Z,31.73
2022-12-31T18:08:18.941Z,33.33
2022-12-31T18:10:46.021Z,34.28
2022-12-31T18:13:20.051Z,32.97
2022-12-31T18:15:47.013Z,33.60
2022-12-31T18:18:26.170Z,36.15
2022-12-31T18:20:59.368Z,32.85
2022-12-31T18:23:33.134Z,33.58
2022-12-31T18:25:59.878Z,30.85
2022-12-31T18:28:26.615Z,32.50
2022-12-31T18:30:53.446Z,36.63
2022-12-31T18:33:23.808Z,34.75
2022-12-31T18:36:08.676Z,33.50
2022-12-31T18:38:36.562Z,34.58
2022-12-31T18:41:04.218Z,38.03
2022-12-31T18:43:31.190Z,35.55
2022-12-31T18:45:58.239Z,38.88
2022-12-31T18:48:25.189Z,34.95
2022-12-31T18:50:52.034Z,37.75
2022-12-31T18:53:21.867Z,34.92
2022-12-31T18:55:54.860Z,29.80
2022-12-31T18:58:22.231Z,35.40
2022-12-31T19:00:49.538Z,30.23
2022-12-31T19:03:19.305Z,31.20
2022-12-31T19:05:49.723Z,30.13
2022-12-31T19:08:21.666Z,30.95
2022-12-31T19:10:49.941Z,26.42
2022-12-31T19:13:18.372Z,29.27
2022-12-31T19:15:52.960Z,27.10
2022-12-31T19:18:19.933Z,23.88
2022-12-31T19:20:46.957Z,23.60
2022-12-31T19:23:16.507Z,24.63
2022-12-31T19:25:43.885Z,26.48
2022-12-31T19:28:27.161Z,25.83
2022-12-31T19:30:54.557Z,23.23
2022-12-31T19:33:21.563Z,27.73
2022-12-31T19:35:48.665Z,23.30
2022-12-31T19:38:24.631Z,24.13
2022-12-31T19:43:20.945Z,23.40
2022-12-31T19:45:49.046Z,23.38
2022-12-31T19:48:20.049Z,22.58
2022-12-31T19:50:52.061Z,23.05
2022-12-31T19:53:26.109Z,27.10
2022-12-31T19:55:53.567Z,23.02
2022-12-31T19:58:25.745Z,22.60
2022-12-31T20:00:58.188Z,22.13
2022-12-31T20:03:28.613Z,22.92
2022-12-31T20:06:04.214Z,26.65
2022-12-31T20:08:31.201Z,23.52
2022-12-31T20:10:58.977Z,21.20
2022-12-31T20:13:28.608Z,24.85
2022-12-31T20:15:55.386Z,22.40
2022-12-31T20:18:23.259Z,19.90
2022-12-31T20:20:55.567Z,20.73
2022-12-31T20:23:22.901Z,22.08
2022-12-31T20:25:59.904Z,19.88
2022-12-31T20:28:27.298Z,19.38
2022-12-31T20:30:54.499Z,22.60
2022-12-31T20:33:21.506Z,19.95
2022-12-31T20:35:48.429Z,23.77
2022-12-31T20:38:15.558Z,23.35
2022-12-31T20:40:46.708Z,24.77
2022-12-31T20:43:14.204Z,20.70
2022-12-31T20:45:41.769Z,22.40
2022-12-31T20:48:08.778Z,24.05
2022-12-31T20:50:35.701Z,20.83
2022-12-31T20:53:02.581Z,19.15
2022-12-31T20:55:30.871Z,20.80
2022-12-31T20:57:57.760Z,20.80
2022-12-31T21:00:24.546Z,22.15
2022-12-31T21:02:58.993Z,24.13
2022-12-31T21:05:33.741Z,22.70
2022-12-31T21:08:00.718Z,20.58
2022-12-31T21:10:27.542Z,21.83
2022-12-31T21:12:54.302Z,21.17
2022-12-31T21:15:21.806Z,23.67
2022-12-31T21:17:48.638Z,24.77
2022-12-31T21:20:15.500Z,22.42
2022-12-31T21:22:42.428Z,23.55
2022-12-31T21:25:10.470Z,21.88
2022-12-31T21:27:37.261Z,21.75
2022-12-31T21:30:20.384Z,24.95
2022-12-31T21:32:47.680Z,25.88
2022-12-31T21:35:42.201Z,22.95
2022-12-31T21:38:02.534Z,24.65
2022-12-31T21:40:30.354Z,21.40
2022-12-31T21:42:57.531Z,26.65
2022-12-31T21:45:24.446Z,23.88
2022-12-31T21:48:09.890Z,23.67
2022-12-31T21:50:36.718Z,21.63
2022-12-31T21:53:03.501Z,22.10
2022-12-31T21:55:49.631Z,23.30
2022-12-31T21:58:31.967Z,24.05
2022-12-31T22:01:18.905Z,20.73
2022-12-31T22:03:45.967Z,24.95
2022-12-31T22:06:20.583Z,22.60
2022-12-31T22:08:51.217Z,20.65
2022-12-31T22:11:20.847Z,22.80
2022-12-31T22:13:49.017Z,23.05
2022-12-31T22:16:17.166Z,21.60
2022-12-31T22:18:44.477Z,22.17
2022-12-31T22:21:18.811Z,23.77
2022-12-31T22:23:48.836Z,27.48
2022-12-31T22:26:17.894Z,20.45
2022-12-31T22:28:46.016Z,26.85
2022-12-31T22:31:15.110Z,22.60
2022-12-31T22:33:43.212Z,23.05
2022-12-31T22:36:21.503Z,25.40
2022-12-31T22:38:49.527Z,21.08
2022-12-31T22:41:19.221Z,21.02
2022-12-31T22:43:48.535Z,24.45
2022-12-31T22:46:26.981Z,24.83
2022-12-31T22:48:57.327Z,22.58
2022-12-31T22:51:24.120Z,21.95
2022-12-31T22:53:50.878Z,25.92
2022-12-31T22:56:19.104Z,26.40
2022-12-31T22:58:46.137Z,24.33
2022-12-31T23:01:19.417Z,25.25
2022-12-31T23:03:48.111Z,22.88
2022-12-31T23:06:15.886Z,22.77
2022-12-31T23:09:02.999Z,24.38
2022-12-31T23:11:30.293Z,28.75
2022-12-31T23:14:16.219Z,23.85
2022-12-31T23:17:29.413Z,26.15
2022-12-31T23:20:07.255Z,23.50
2022-12-31T23:22:52.741Z,24.13
2022-12-31T23:25:19.774Z,24.60
2022-12-31T23:27:46.488Z,26.02
2022-12-31T23:30:13.441Z,28.48
2022-12-31T23:32:40.270Z,26.70
2022-12-31T23:35:10.067Z,26.58
2022-12-31T23:37:37.222Z,26.27
2022-12-31T23:40:04.628Z,29.00
2022-12-31T23:42:31.578Z,25.88
2022-12-31T23:44:58.353Z,24.20
2022-12-31T23:47:25.176Z,29.17
2022-12-31T23:49:51.953Z,25.38
2022-12-31T23:52:18.702Z,26.20
2022-12-31T23:54:45.512Z,26.60
2022-12-31T23:57:12.288Z,26.15
2022-12-31T23:59:39.131Z,28.58
